Time;durP1;ratioP1;P1;durP2;ratioP2;P2;SDS_P1;SDS_P2;PMS_P1;PMS_P2;Temp;Humidity;BMP_temperature;BMP_pressure;BME280_temperature;BME280_humidity;BME280_pressure;Samples;Min_cycle;Max_cycle;Signal;HPM_P1;HPM_P2
2022/05/05 00:01:50;;;;;;;3.90;3.20;;;14.60;99.90;;;;;;5013568;28;20262;-53
2022/05/05 00:04:18;;;;;;;3.47;3.17;;;14.60;99.90;;;;;;5012934;28;20221;-55
2022/05/05 00:06:44;;;;;;;4.97;3.33;;;14.70;99.90;;;;;;5013481;28;20172;-55
2022/05/05 00:09:09;;;;;;;4.73;3.50;;;14.70;99.90;;;;;;5013361;28;20174;-53
2022/05/05 00:14:31;;;;;;;5.30;3.50;;;14.80;99.90;;;;;;5011585;28;20288;-52
2022/05/05 00:16:58;;;;;;;4.80;3.47;;;14.70;99.90;;;;;;5013330;28;20193;-57
2022/05/05 00:19:25;;;;;;;3.80;3.10;;;14.60;99.90;;;;;;5012992;28;20194;-56
2022/05/05 00:21:51;;;;;;;3.50;3.20;;;14.60;99.90;;;;;;5013167;28;20176;-57
2022/05/05 00:24:17;;;;;;;3.70;3.20;;;14.70;99.90;;;;;;5012713;28;20263;-52
2022/05/05 00:26:43;;;;;;;4.87;3.60;;;14.80;99.90;;;;;;5013012;28;20182;-55
2022/05/05 00:29:09;;;;;;;4.93;3.40;;;14.80;99.90;;;;;;5012870;28;20175;-55
2022/05/05 00:31:34;;;;;;;3.73;3.43;;;14.90;99.90;;;;;;5013091;28;20179;-56
2022/05/05 00:34:00;;;;;;;4.07;3.67;;;14.90;99.90;;;;;;5012576;28;20256;-59
2022/05/05 00:36:26;;;;;;;4.10;3.70;;;14.90;99.90;;;;;;5012890;28;20178;-56
2022/05/05 00:38:51;;;;;;;4.70;3.70;;;14.90;99.90;;;;;;5012682;28;20208;-55
2022/05/05 00:41:17;;;;;;;4.77;3.97;;;14.90;99.90;;;;;;5012909;28;20166;-57
2022/05/05 00:43:43;;;;;;;4.83;4.10;;;14.90;99.90;;;;;;4995095;28;20187;-53
2022/05/05 00:46:08;;;;;;;3.90;3.60;;;15.00;99.90;;;;;;5012864;28;20182;-59
2022/05/05 00:48:34;;;;;;;4.43;3.80;;;15.00;99.90;;;;;;5012855;28;20209;-52
2022/05/05 00:50:59;;;;;;;4.60;4.20;;;15.00;99.90;;;;;;5012605;28;20182;-53
2022/05/05 00:53:25;;;;;;;4.67;3.90;;;15.00;99.90;;;;;;5012316;28;20194;-58
2022/05/05 00:55:58;;;;;;;4.40;4.00;;;15.00;99.90;;;;;;5012360;28;20176;-56
2022/05/05 00:58:27;;;;;;;4.33;3.93;;;14.90;99.90;;;;;;5012643;28;20201;-49
2022/05/05 01:00:54;;;;;;;5.17;4.27;;;14.90;99.90;;;;;;5012578;28;20180;-51
2022/05/05 01:03:20;;;;;;;4.83;4.33;;;15.00;99.90;;;;;;5012206;28;20221;-57
2022/05/05 01:05:46;;;;;;;4.60;4.07;;;15.00;99.90;;;;;;5012190;28;20167;-55
2022/05/05 01:08:11;;;;;;;4.83;4.27;;;15.00;99.90;;;;;;5012255;28;20532;-52
2022/05/05 01:10:37;;;;;;;5.00;3.93;;;15.00;99.90;;;;;;5012465;28;20183;-52
2022/05/05 01:13:02;;;;;;;5.00;4.60;;;15.00;99.90;;;;;;5012221;28;20175;-52
2022/05/05 01:15:34;;;;;;;4.67;4.27;;;15.00;99.90;;;;;;5011850;28;20300;-56
2022/05/05 01:17:59;;;;;;;4.67;4.27;;;15.00;99.90;;;;;;5012148;28;20189;-52
2022/05/05 01:20:25;;;;;;;8.90;4.20;;;14.90;99.90;;;;;;5009706;28;20556;-56
2022/05/05 01:22:51;;;;;;;4.40;4.00;;;14.90;99.90;;;;;;5011906;28;20547;-57
2022/05/05 01:28:13;;;;;;;4.30;4.00;;;14.90;99.90;;;;;;5012116;28;20291;-55
2022/05/05 01:30:43;;;;;;;4.23;3.90;;;14.90;99.90;;;;;;5012190;28;20162;-55
2022/05/05 01:33:14;;;;;;;4.27;3.87;;;14.90;99.90;;;;;;5011912;28;20170;-54
2022/05/05 01:35:40;;;;;;;5.47;4.97;;;15.00;99.90;;;;;;5011700;28;20587;-56
2022/05/05 01:38:07;;;;;;;5.90;5.30;;;14.90;99.90;;;;;;5012024;28;20230;-56
2022/05/05 01:40:35;;;;;;;6.10;5.50;;;14.80;99.90;;;;;;5011490;28;20180;-51
2022/05/05 01:43:02;;;;;;;6.20;5.60;;;14.60;99.90;;;;;;5011871;28;20181;-52
2022/05/05 01:45:28;;;;;;;6.47;5.87;;;14.50;99.90;;;;;;5011366;28;20549;-57
2022/05/05 01:47:54;;;;;;;6.57;5.87;;;14.40;99.90;;;;;;5011873;28;20173;-51
2022/05/05 01:50:20;;;;;;;6.57;5.97;;;14.30;99.90;;;;;;5011831;28;20170;-52
2022/05/05 01:52:47;;;;;;;6.80;5.30;;;14.30;99.90;;;;;;5012093;28;20604;-53
2022/05/05 01:55:13;;;;;;;5.70;5.20;;;14.50;99.90;;;;;;5011341;28;20702;-59
2022/05/05 01:57:38;;;;;;;5.63;5.13;;;14.50;99.90;;;;;;5011856;28;20168;-52
2022/05/05 02:00:04;;;;;;;5.60;5.10;;;14.60;99.90;;;;;;5011577;28;20350;-51
2022/05/05 02:02:30;;;;;;;5.87;5.37;;;14.60;99.90;;;;;;5011854;28;20181;-54
2022/05/05 02:04:57;;;;;;;6.47;5.87;;;14.70;99.90;;;;;;5011291;28;20214;-54
2022/05/05 02:07:22;;;;;;;6.00;5.50;;;14.60;99.90;;;;;;5011684;28;20167;-52
2022/05/05 02:09:48;;;;;;;6.50;5.90;;;14.50;99.90;;;;;;5011777;28;20664;-55
2022/05/05 02:12:13;;;;;;;6.10;5.50;;;14.50;99.90;;;;;;5011662;28;20168;-53
2022/05/05 02:14:39;;;;;;;6.30;5.70;;;14.40;99.90;;;;;;5011184;28;20193;-55
2022/05/05 02:17:05;;;;;;;6.60;6.00;;;14.50;99.90;;;;;;5011788;28;20183;-55
2022/05/05 02:19:31;;;;;;;7.60;6.90;;;14.60;99.90;;;;;;5011745;28;20267;-54
2022/05/05 02:21:56;;;;;;;7.50;6.80;;;14.30;99.90;;;;;;5011543;28;20182;-58
2022/05/05 02:24:22;;;;;;;7.00;6.33;;;14.20;99.90;;;;;;5011361;28;20586;-53
2022/05/05 02:26:48;;;;;;;7.80;7.10;;;14.20;99.90;;;;;;5011446;28;20669;-55
2022/05/05 02:29:14;;;;;;;7.03;6.33;;;14.20;99.90;;;;;;5011294;28;20173;-52
2022/05/05 02:31:39;;;;;;;6.57;6.00;;;14.20;99.90;;;;;;5011573;28;20185;-54
2022/05/05 02:34:08;;;;;;;6.80;6.20;;;14.20;99.90;;;;;;5011177;28;20196;-54
2022/05/05 02:39:22;;;;;;;8.43;7.33;;;14.20;99.90;;;;;;5011287;28;20211;-54
2022/05/05 02:41:48;;;;;;;6.77;6.17;;;14.30;99.90;;;;;;5011397;28;20180;-56
2022/05/05 02:44:14;;;;;;;6.80;6.20;;;14.30;99.90;;;;;;5010889;28;20185;-58
2022/05/05 02:46:39;;;;;;;7.90;6.97;;;14.40;99.90;;;;;;5011206;28;20178;-53
2022/05/05 02:49:05;;;;;;;7.53;6.73;;;14.30;99.90;;;;;;5011348;28;20271;-52
2022/05/05 02:51:31;;;;;;;7.73;6.93;;;14.40;99.90;;;;;;5012519;28;20181;-56
2022/05/05 02:56:40;;;;;;;6.57;5.97;;;14.20;99.90;;;;;;5014916;28;20549;-55
2022/05/05 02:59:06;;;;;;;6.60;6.00;;;14.30;99.90;;;;;;5014763;28;20198;-53
2022/05/05 03:01:32;;;;;;;6.87;6.17;;;14.10;99.90;;;;;;5014694;28;20173;-55
2022/05/05 03:03:58;;;;;;;7.90;6.57;;;14.10;99.90;;;;;;5014167;28;20288;-56
2022/05/05 03:06:23;;;;;;;8.50;7.70;;;14.00;99.90;;;;;;5014629;28;20260;-55
2022/05/05 03:08:49;;;;;;;7.90;7.20;;;14.00;99.90;;;;;;5014611;28;20541;-56
2022/05/05 03:11:14;;;;;;;8.30;7.50;;;13.90;99.90;;;;;;5014472;28;20224;-54
2022/05/05 03:13:40;;;;;;;8.40;7.60;;;13.90;99.90;;;;;;5014006;28;20244;-54
2022/05/05 03:16:06;;;;;;;8.77;7.87;;;13.80;99.90;;;;;;5014404;28;20174;-54
2022/05/05 03:18:31;;;;;;;8.30;7.50;;;13.80;99.90;;;;;;5014472;28;20284;-53
2022/05/05 03:20:57;;;;;;;8.53;7.47;;;14.00;99.90;;;;;;5014481;28;20176;-56
2022/05/05 03:23:22;;;;;;;8.50;7.70;;;13.90;99.90;;;;;;5013820;28;20561;-55
2022/05/05 03:25:48;;;;;;;8.10;7.40;;;13.90;99.90;;;;;;5014117;28;20176;-56
2022/05/05 03:28:14;;;;;;;9.50;8.60;;;14.40;99.90;;;;;;5014489;28;20181;-52
2022/05/05 03:30:40;;;;;;;8.80;8.00;;;13.90;99.90;;;;;;5014315;28;20236;-54
2022/05/05 03:33:07;;;;;;;8.30;7.50;;;13.90;99.90;;;;;;5014342;28;20174;-52
2022/05/05 03:35:33;;;;;;;8.40;7.60;;;13.80;99.90;;;;;;5013951;28;20180;-51
2022/05/05 03:37:59;;;;;;;8.80;7.93;;;13.80;99.90;;;;;;5007719;28;20646;-57
2022/05/05 03:40:24;;;;;;;8.43;7.63;;;13.80;99.90;;;;;;5013802;28;20207;-55
2022/05/05 03:42:50;;;;;;;7.73;7.03;;;13.80;99.90;;;;;;5014305;28;20171;-52
2022/05/05 03:45:16;;;;;;;7.50;6.57;;;13.80;99.90;;;;;;5013427;28;20196;-56
2022/05/05 03:47:41;;;;;;;9.67;8.67;;;13.80;99.90;;;;;;5013947;28;20169;-52
2022/05/05 03:50:08;;;;;;;9.10;8.20;;;13.60;99.90;;;;;;5013564;28;20238;-52
2022/05/05 03:52:34;;;;;;;34.00;10.27;;;13.50;99.90;;;;;;5013611;28;20650;-55
2022/05/05 03:55:00;;;;;;;11.13;9.03;;;13.40;99.90;;;;;;5013344;28;20194;-52
2022/05/05 03:57:25;;;;;;;10.90;9.30;;;13.40;99.90;;;;;;5013609;28;20252;-56
2022/05/05 03:59:51;;;;;;;9.80;8.90;;;13.30;99.90;;;;;;5013475;28;20239;-53
2022/05/05 04:02:17;;;;;;;8.13;7.33;;;13.30;99.90;;;;;;5013584;28;20199;-59
2022/05/05 04:04:42;;;;;;;8.70;7.90;;;13.40;99.90;;;;;;5012703;28;20203;-53
2022/05/05 04:07:08;;;;;;;19.13;7.63;;;13.30;99.90;;;;;;5013493;28;20172;-55
2022/05/05 04:09:34;;;;;;;9.60;7.57;;;13.10;99.90;;;;;;5013317;28;20260;-54
2022/05/05 04:11:59;;;;;;;12.27;6.80;;;12.90;99.90;;;;;;5013366;28;20172;-57
2022/05/05 04:14:25;;;;;;;8.50;7.70;;;12.90;99.90;;;;;;5013027;28;20200;-52
2022/05/05 04:16:51;;;;;;;7.90;7.10;;;12.80;99.90;;;;;;5013339;28;20173;-55
2022/05/05 04:19:16;;;;;;;7.17;6.47;;;12.90;99.90;;;;;;5013213;28;20252;-52
2022/05/05 04:21:42;;;;;;;7.60;6.90;;;13.00;99.90;;;;;;5013176;28;20165;-54
2022/05/05 04:24:08;;;;;;;9.03;6.50;;;13.00;99.90;;;;;;5012884;28;20192;-54
2022/05/05 04:26:33;;;;;;;20.40;6.90;;;13.00;99.90;;;;;;5013145;28;20173;-55
2022/05/05 04:28:59;;;;;;;10.23;6.70;;;13.10;99.90;;;;;;5013218;28;20173;-54
2022/05/05 04:31:29;;;;;;;7.07;6.40;;;13.20;99.90;;;;;;5013056;28;20177;-54
2022/05/05 04:33:55;;;;;;;7.00;6.40;;;13.30;99.90;;;;;;5012708;28;20196;-51
2022/05/05 04:36:20;;;;;;;7.90;7.10;;;13.50;99.90;;;;;;5012928;28;20518;-53
2022/05/05 04:38:46;;;;;;;131.57;11.77;;;13.80;99.90;;;;;;5012909;28;20204;-55
2022/05/05 04:41:11;;;;;;;8.13;7.33;;;13.50;99.90;;;;;;5012795;28;20203;-56
2022/05/05 04:43:37;;;;;;;8.97;8.07;;;13.60;99.90;;;;;;5012448;28;20186;-51
2022/05/05 04:46:03;;;;;;;8.80;8.00;;;13.70;99.90;;;;;;5012847;28;20517;-51
2022/05/05 04:48:28;;;;;;;10.97;8.83;;;13.90;99.90;;;;;;5012791;28;20176;-51
2022/05/05 04:50:54;;;;;;;9.97;8.97;;;13.90;99.90;;;;;;5012771;28;20181;-54
2022/05/05 04:53:19;;;;;;;96.17;10.50;;;14.00;99.90;;;;;;5012355;28;20197;-55
2022/05/05 04:55:45;;;;;;;10.93;7.63;;;14.00;99.90;;;;;;5012600;28;20645;-56
2022/05/05 04:58:10;;;;;;;8.30;7.47;;;14.00;99.90;;;;;;5012721;28;20216;-52
2022/05/05 05:00:36;;;;;;;65.57;9.70;;;14.10;99.90;;;;;;5012556;28;20642;-53
2022/05/05 05:03:02;;;;;;;13.33;8.10;;;14.00;99.90;;;;;;5012397;28;20678;-51
2022/05/05 05:05:27;;;;;;;7.50;6.80;;;13.90;99.90;;;;;;5031870;23;20908;-54
2022/05/05 05:07:53;;;;;;;26.97;10.23;;;14.00;99.90;;;;;;5011223;28;20259;-51
2022/05/05 05:10:19;;;;;;;15.30;9.00;;;14.00;99.90;;;;;;5011669;28;20672;-53
2022/05/05 05:12:44;;;;;;;32.53;11.10;;;13.90;99.90;;;;;;5011782;28;20177;-52
2022/05/05 05:15:10;;;;;;;10.40;8.97;;;13.90;99.90;;;;;;5010685;28;20204;-52
2022/05/05 05:17:36;;;;;;;9.90;8.90;;;13.90;99.90;;;;;;5011979;28;20192;-54
2022/05/05 05:20:03;;;;;;;10.30;9.30;;;14.00;99.90;;;;;;5012073;28;20294;-51
2022/05/05 05:22:29;;;;;;;10.63;9.53;;;14.10;99.90;;;;;;5011886;28;20624;-51
2022/05/05 05:24:54;;;;;;;10.30;9.30;;;14.10;99.90;;;;;;5011621;28;20226;-50
2022/05/05 05:27:20;;;;;;;10.60;9.50;;;14.20;99.90;;;;;;5011990;28;20458;-54
2022/05/05 05:29:46;;;;;;;10.27;9.27;;;14.20;99.90;;;;;;5012114;28;20172;-49
2022/05/05 05:32:11;;;;;;;11.27;9.67;;;14.20;99.90;;;;;;4994407;28;20183;-51
2022/05/05 05:34:37;;;;;;;10.30;9.30;;;14.30;99.90;;;;;;5011599;28;20178;-52
2022/05/05 05:37:03;;;;;;;11.50;10.40;;;14.50;99.90;;;;;;5011962;28;20269;-51
2022/05/05 05:39:30;;;;;;;11.30;9.70;;;14.60;99.90;;;;;;5011802;28;20203;-49
2022/05/05 05:41:56;;;;;;;9.43;8.53;;;14.60;99.90;;;;;;5011663;28;20270;-49
2022/05/05 05:44:22;;;;;;;10.10;9.13;;;14.60;99.90;;;;;;5011419;28;20222;-51
2022/05/05 05:46:47;;;;;;;11.13;10.03;;;14.70;99.90;;;;;;5011991;28;20175;-53
2022/05/05 05:49:13;;;;;;;10.50;9.50;;;14.80;99.90;;;;;;5011802;28;20183;-50
2022/05/05 05:51:39;;;;;;;10.37;9.40;;;14.70;99.90;;;;;;5011863;28;20203;-51
2022/05/05 05:54:04;;;;;;;11.30;10.10;;;14.80;99.90;;;;;;5011588;28;20251;-51
2022/05/05 05:56:30;;;;;;;10.53;9.53;;;14.70;99.90;;;;;;5011427;28;20212;-53
2022/05/05 05:58:56;;;;;;;10.70;9.60;;;14.70;99.90;;;;;;5011208;28;20223;-54
2022/05/05 06:03:53;;;;;;;10.30;9.30;;;14.90;99.90;;;;;;5011376;28;20255;-50
2022/05/05 06:04:09;;;;;;;10.83;9.83;;;15.00;99.90;;;;;;5009402;28;20184;-52
2022/05/05 06:06:35;;;;;;;10.63;9.63;;;15.00;99.90;;;;;;5008657;28;20220;-51
2022/05/05 06:09:00;;;;;;;10.20;9.20;;;15.10;99.90;;;;;;5008759;28;20184;-50
2022/05/05 06:11:26;;;;;;;9.90;9.00;;;15.40;99.90;;;;;;4992323;28;20529;-50
2022/05/05 06:13:52;;;;;;;9.93;9.03;;;15.50;99.90;;;;;;5009340;28;20557;-53
2022/05/05 06:16:17;;;;;;;10.13;9.20;;;15.60;99.90;;;;;;5008811;28;20204;-53
2022/05/05 06:18:43;;;;;;;10.33;9.30;;;15.70;99.90;;;;;;5006107;28;20205;-49
2022/05/05 06:21:09;;;;;;;10.40;9.40;;;15.90;99.90;;;;;;5007876;28;20189;-49
2022/05/05 06:23:37;;;;;;;11.60;10.40;;;15.90;99.90;;;;;;5004113;28;20181;-50
2022/05/05 06:26:05;;;;;;;9.07;8.27;;;16.10;99.90;;;;;;5006412;28;20669;-52
2022/05/05 06:28:32;;;;;;;9.73;8.77;;;16.20;99.90;;;;;;5011782;28;20177;-50
2022/05/05 06:30:58;;;;;;;9.23;8.43;;;16.10;99.90;;;;;;5013418;28;20326;-53
2022/05/05 06:33:24;;;;;;;9.30;8.40;;;16.00;99.90;;;;;;5011417;28;20667;-54
2022/05/05 06:35:49;;;;;;;9.00;8.20;;;15.90;99.90;;;;;;5014689;28;20204;-49
2022/05/05 06:38:15;;;;;;;8.80;7.90;;;16.00;99.90;;;;;;5014439;28;20574;-52
2022/05/05 06:40:42;;;;;;;7.93;7.23;;;16.00;99.90;;;;;;5025975;28;20196;-54
2022/05/05 06:43:08;;;;;;;8.37;7.60;;;16.20;99.90;;;;;;5021578;28;20179;-50
2022/05/05 06:45:33;;;;;;;8.10;7.40;;;16.20;99.90;;;;;;5010407;28;20558;-49
2022/05/05 06:47:59;;;;;;;7.93;7.23;;;16.40;99.90;;;;;;5013969;28;20177;-49
2022/05/05 06:50:25;;;;;;;8.03;7.33;;;16.60;99.90;;;;;;5010693;28;20279;-50
2022/05/05 06:52:51;;;;;;;9.70;8.80;;;16.80;99.90;;;;;;5013048;28;20223;-50
2022/05/05 06:55:18;;;;;;;8.83;8.00;;;16.90;99.90;;;;;;5014067;28;20589;-49
2022/05/05 06:57:44;;;;;;;9.10;8.20;;;16.90;99.90;;;;;;5014271;28;20172;-51
2022/05/05 07:00:11;;;;;;;8.83;8.03;;;16.80;99.90;;;;;;5014460;28;20565;-53
2022/05/05 07:02:37;;;;;;;8.63;7.83;;;16.60;99.90;;;;;;5014750;28;20200;-49
2022/05/05 07:07:46;;;;;;;8.10;7.40;;;16.40;99.90;;;;;;5014224;28;20589;-53
2022/05/05 07:12:56;;;;;;;7.63;6.93;;;16.30;99.90;;;;;;5014030;28;20664;-50
2022/05/05 07:15:21;;;;;;;7.53;6.73;;;16.30;99.90;;;;;;5013674;28;20196;-50
2022/05/05 07:17:48;;;;;;;7.90;7.20;;;16.20;99.90;;;;;;5013675;28;20200;-49
2022/05/05 07:20:13;;;;;;;7.43;6.73;;;16.40;99.90;;;;;;5013858;28;20201;-53
2022/05/05 07:22:40;;;;;;;8.70;7.90;;;16.50;99.90;;;;;;5013416;28;20645;-49
2022/05/05 07:25:07;;;;;;;9.17;8.37;;;16.90;99.90;;;;;;5013200;28;20276;-52
2022/05/05 07:27:33;;;;;;;7.87;7.17;;;17.10;99.90;;;;;;5013651;28;20275;-49
2022/05/05 07:29:59;;;;;;;7.50;6.80;;;17.20;99.90;;;;;;5013551;28;20264;-52
2022/05/05 07:32:24;;;;;;;7.70;7.00;;;17.40;99.90;;;;;;5013594;28;20185;-50
2022/05/05 07:34:50;;;;;;;7.80;7.20;;;17.50;99.90;;;;;;5013457;28;20212;-54
2022/05/05 07:37:16;;;;;;;7.03;6.40;;;17.40;99.90;;;;;;5013452;28;20184;-49
2022/05/05 07:39:41;;;;;;;7.67;6.97;;;17.30;99.90;;;;;;5013275;28;20209;-52
2022/05/05 07:42:08;;;;;;;8.20;7.40;;;17.10;99.90;;;;;;5014178;28;20706;-51
2022/05/05 07:44:34;;;;;;;7.27;6.67;;;17.30;99.90;;;;;;5013493;28;20550;-51
2022/05/05 07:46:59;;;;;;;7.47;6.77;;;17.30;99.90;;;;;;5013701;28;20260;-50
2022/05/05 07:49:25;;;;;;;8.30;7.60;;;17.40;99.90;;;;;;5014211;28;20272;-49
2022/05/05 07:51:52;;;;;;;8.20;7.50;;;17.30;99.90;;;;;;5013730;28;20194;-49
2022/05/05 07:54:37;;;;;;;7.97;7.27;;;17.40;99.90;;;;;;5013600;28;20176;-49
2022/05/05 07:57:04;;;;;;;8.07;7.27;;;17.50;99.90;;;;;;5013185;28;20511;-50
2022/05/05 07:59:30;;;;;;;7.67;6.87;;;17.40;99.90;;;;;;5012954;28;20230;-50
2022/05/05 08:01:56;;;;;;;8.10;7.40;;;17.40;99.90;;;;;;5013195;28;20192;-49
2022/05/05 08:04:22;;;;;;;8.13;7.33;;;17.50;99.90;;;;;;5012745;28;20709;-52
2022/05/05 08:06:47;;;;;;;8.17;7.27;;;17.50;99.90;;;;;;5012685;28;20284;-50
2022/05/05 08:09:13;;;;;;;7.97;7.27;;;17.60;99.90;;;;;;5013058;28;20212;-50
2022/05/05 08:11:39;;;;;;;8.53;7.73;;;17.60;99.90;;;;;;5013076;28;20176;-51
2022/05/05 08:14:05;;;;;;;7.20;6.60;;;17.70;99.90;;;;;;5012152;28;20240;-49
2022/05/05 08:16:31;;;;;;;7.60;6.90;;;17.90;99.90;;;;;;5012769;28;20225;-51
2022/05/05 08:18:57;;;;;;;7.87;7.17;;;18.10;99.90;;;;;;5013142;28;20245;-51
2022/05/05 08:21:22;;;;;;;8.40;7.60;;;18.10;99.90;;;;;;5013230;28;20207;-49
2022/05/05 08:23:48;;;;;;;7.03;6.43;;;18.00;99.90;;;;;;5012859;28;20650;-49
2022/05/05 08:28:57;;;;;;;7.13;6.43;;;18.30;99.90;;;;;;5006943;28;20198;-53
2022/05/05 08:31:23;;;;;;;7.53;6.83;;;18.50;99.90;;;;;;5012500;28;20183;-49
2022/05/05 08:33:49;;;;;;;7.27;6.63;;;18.60;99.90;;;;;;5012430;28;20183;-49
2022/05/05 08:36:14;;;;;;;7.10;6.50;;;18.50;99.90;;;;;;5012300;28;20672;-51
2022/05/05 08:38:40;;;;;;;7.50;6.80;;;18.50;99.90;;;;;;5012460;28;20220;-53
2022/05/05 08:41:11;;;;;;;6.60;6.00;;;18.60;99.90;;;;;;5012399;28;20225;-51
2022/05/05 08:43:36;;;;;;;6.23;5.73;;;18.70;99.90;;;;;;5012284;28;20676;-54
2022/05/05 08:46:03;;;;;;;6.87;5.50;;;19.00;99.90;;;;;;4994663;28;20228;-50
2022/05/05 08:48:31;;;;;;;6.07;5.10;;;19.30;99.90;;;;;;5012283;28;20198;-50
2022/05/05 08:50:59;;;;;;;5.47;5.00;;;19.60;99.90;;;;;;5009503;28;20539;-52
2022/05/05 08:53:29;;;;;;;4.87;4.47;;;19.70;99.90;;;;;;5012285;28;20602;-50
2022/05/05 08:55:55;;;;;;;5.60;5.10;;;19.80;99.90;;;;;;5011878;28;20581;-49
2022/05/05 08:58:22;;;;;;;5.60;5.10;;;19.70;99.90;;;;;;5012186;28;20204;-50
2022/05/05 09:00:52;;;;;;;5.50;4.60;;;19.70;99.90;;;;;;5012145;28;20202;-52
2022/05/05 09:03:18;;;;;;;5.70;5.20;;;19.70;99.90;;;;;;5009550;28;20231;-53
2022/05/05 09:05:44;;;;;;;5.70;5.20;;;19.80;99.90;;;;;;5011219;28;20753;-53
2022/05/05 09:08:13;;;;;;;5.53;5.10;;;19.90;99.90;;;;;;5011902;28;20259;-50
2022/05/05 09:10:44;;;;;;;5.63;5.00;;;20.10;99.90;;;;;;5012237;28;20188;-49
2022/05/05 09:13:10;;;;;;;5.20;4.70;;;20.30;99.90;;;;;;5014293;28;20260;-49
2022/05/05 09:15:40;;;;;;;5.07;4.57;;;20.50;99.90;;;;;;5016104;28;20601;-52
2022/05/05 09:18:17;;;;;;;5.87;5.27;;;20.50;99.90;;;;;;4996087;28;20186;-49
2022/05/05 09:20:44;;;;;;;5.43;4.93;;;20.50;99.90;;;;;;5031746;28;20186;-52
2022/05/05 09:23:25;;;;;;;4.40;4.00;;;20.60;99.90;;;;;;5007156;28;20185;-52
2022/05/05 09:25:51;;;;;;;5.53;5.03;;;20.70;99.90;;;;;;5000599;28;20690;-54
2022/05/05 09:28:18;;;;;;;5.20;4.80;;;20.80;99.90;;;;;;5011596;28;20242;-49
2022/05/05 09:30:48;;;;;;;4.93;4.53;;;20.60;99.90;;;;;;5011554;28;20672;-50
2022/05/05 09:33:38;;;;;;;6.60;4.47;;;20.40;99.90;;;;;;5011522;28;20176;-49
2022/05/05 09:36:04;;;;;;;4.50;3.87;;;20.30;99.90;;;;;;4980558;28;20207;-50
2022/05/05 09:39:00;;;;;;;5.53;5.03;;;20.30;99.90;;;;;;4964413;28;20209;-50
2022/05/05 09:41:28;;;;;;;5.20;4.70;;;20.40;99.90;;;;;;4980520;28;20265;-49
2022/05/05 09:43:56;;;;;;;7.57;5.00;;;20.50;99.90;;;;;;4975616;28;20646;-49
2022/05/05 09:46:25;;;;;;;5.03;4.57;;;20.70;99.90;;;;;;4979928;28;20266;-50
2022/05/05 09:48:52;;;;;;;4.70;4.30;;;20.80;99.90;;;;;;4973279;28;20218;-50
2022/05/05 09:51:18;;;;;;;5.25;4.75;;;21.00;99.90;;;;;;4982540;28;20189;-51
2022/05/05 09:59:20;;;;;;;5.97;4.53;;;20.80;99.90;;;;;;4981101;28;20209;-48
2022/05/05 10:01:50;;;;;;;6.18;5.07;;;20.50;99.90;;;;;;4982712;28;20614;-50
2022/05/05 10:04:21;;;;;;;4.97;4.57;;;20.30;99.90;;;;;;4985014;28;20173;-49
2022/05/05 10:06:48;;;;;;;4.93;4.53;;;20.20;99.90;;;;;;4986515;28;20189;-48
2022/05/05 10:09:16;;;;;;;6.00;5.40;;;20.20;99.90;;;;;;4987296;28;20178;-49
2022/05/05 10:11:42;;;;;;;5.37;4.97;;;20.30;99.90;;;;;;4984248;28;20181;-53
2022/05/05 10:14:13;;;;;;;5.15;4.75;;;20.20;99.90;;;;;;5015082;28;20185;-55
2022/05/05 10:16:40;;;;;;;6.33;4.50;;;20.30;99.90;;;;;;5017043;28;20189;-53
2022/05/05 10:19:06;;;;;;;4.73;4.33;;;20.40;99.90;;;;;;5004786;28;20203;-52
2022/05/05 10:21:34;;;;;;;5.10;4.60;;;20.70;99.90;;;;;;5015106;28;21133;-51
2022/05/05 10:24:19;;;;;;;4.60;4.20;;;21.00;99.90;;;;;;5016934;28;20190;-50
2022/05/05 10:26:58;;;;;;;4.97;4.47;;;21.20;99.90;;;;;;5014371;28;20193;-49
2022/05/05 10:29:42;;;;;;;6.00;5.40;;;21.40;99.90;;;;;;5016868;28;20678;-52
2022/05/05 10:32:10;;;;;;;4.80;4.30;;;21.30;99.90;;;;;;5015013;28;20187;-50
2022/05/05 10:34:37;;;;;;;5.00;4.60;;;21.10;99.90;;;;;;5023293;28;20177;-50
2022/05/05 10:37:04;;;;;;;4.70;4.30;;;20.70;99.90;;;;;;5024377;28;20239;-55
2022/05/05 10:39:53;;;;;;;5.30;4.53;;;20.50;99.90;;;;;;5008949;28;20589;-52
2022/05/05 10:42:41;;;;;;;5.23;4.73;;;20.40;99.90;;;;;;5016362;28;20195;-49
2022/05/05 10:45:07;;;;;;;5.53;5.13;;;20.20;99.90;;;;;;5014593;28;20200;-49
2022/05/05 10:47:55;;;;;;;5.50;5.00;;;20.10;99.90;;;;;;5015038;28;20173;-50
2022/05/05 10:50:42;;;;;;;6.40;4.82;;;20.20;99.90;;;;;;5014968;28;20188;-53
2022/05/05 10:53:23;;;;;;;5.65;4.90;;;20.40;99.90;;;;;;5014984;28;20751;-50
2022/05/05 10:55:49;;;;;;;4.73;4.33;;;20.40;99.90;;;;;;5014717;28;20746;-53
2022/05/05 10:58:52;;;;;;;4.78;4.38;;;20.60;99.90;;;;;;5014722;28;20267;-52
2022/05/05 11:01:18;;;;;;;4.38;4.00;;;20.80;99.90;;;;;;5014859;28;20267;-50
2022/05/05 11:04:24;;;;;;;5.22;4.80;;;21.10;99.90;;;;;;5014709;28;20249;-50
2022/05/05 11:07:21;;;;;;;6.78;5.25;;;21.40;99.90;;;;;;5071911;23;20317;-55
2022/05/05 11:09:47;;;;;;;4.90;4.50;;;21.60;99.90;;;;;;5028157;28;20189;-57
2022/05/05 11:12:19;;;;;;;5.90;4.80;;;21.70;99.90;;;;;;5032707;28;20182;-56
2022/05/05 11:21:35;;;;;;;4.80;4.30;;;21.80;99.90;;;;;;5034490;28;20180;-56
2022/05/05 11:23:57;;;;;;;3.95;3.65;;;21.60;99.90;;;;;;5029836;28;20187;-57
2022/05/05 11:26:23;;;;;;;5.68;4.25;;;21.50;99.90;;;;;;5033809;28;20245;-57
2022/05/05 11:28:50;;;;;;;4.20;3.90;;;21.70;99.90;;;;;;5034014;28;20251;-57
2022/05/05 11:31:28;;;;;;;4.68;3.92;;;22.20;99.90;;;;;;5034422;28;20233;-55
2022/05/05 11:33:58;;;;;;;4.20;3.90;;;22.30;99.90;;;;;;5033637;28;20176;-56
2022/05/05 11:36:29;;;;;;;4.32;3.92;;;22.30;99.90;;;;;;5033809;28;20199;-57
2022/05/05 11:38:55;;;;;;;4.63;3.70;;;22.40;99.90;;;;;;5033801;28;20203;-57
2022/05/05 11:41:22;;;;;;;3.80;3.50;;;22.40;99.90;;;;;;5022999;28;20176;-54
2022/05/05 11:46:32;;;;;;;3.92;3.63;;;22.10;99.90;;;;;;5013903;28;20223;-54
2022/05/05 11:48:59;;;;;;;3.80;3.42;;;22.20;99.90;;;;;;5014043;28;20208;-55
2022/05/05 11:51:27;;;;;;;4.50;4.15;;;22.30;99.90;;;;;;5013977;28;20578;-53
2022/05/05 11:54:00;;;;;;;4.00;3.70;;;22.60;99.90;;;;;;5013534;28;20176;-53
2022/05/05 11:56:29;;;;;;;3.53;3.13;;;22.60;99.90;;;;;;5013713;28;20292;-52
2022/05/05 12:02:22;;;;;;;4.05;3.65;;;23.10;99.90;;;;;;4933653;29;20231;-52
2022/05/05 12:04:54;;;;;;;4.70;3.33;;;23.20;99.90;;;;;;4933654;29;20603;-52
2022/05/05 12:07:23;;;;;;;5.15;3.90;;;23.20;99.90;;;;;;4979814;28;20227;-52
2022/05/05 12:09:51;;;;;;;3.50;3.20;;;23.00;99.90;;;;;;5013507;28;20173;-51
2022/05/05 12:12:20;;;;;;;3.28;2.97;;;22.80;99.90;;;;;;5013439;28;20189;-53
2022/05/05 12:14:48;;;;;;;3.33;3.03;;;22.90;99.90;;;;;;5012831;28;20275;-55
2022/05/05 12:17:20;;;;;;;3.47;3.08;;;23.30;99.90;;;;;;5013008;28;20255;-55
2022/05/05 12:19:59;;;;;;;3.05;2.70;;;23.30;99.90;;;;;;5013250;28;20295;-55
2022/05/05 12:22:33;;;;;;;2.95;2.65;;;23.30;99.90;;;;;;5013423;28;20168;-56
2022/05/05 12:25:16;;;;;;;3.25;2.70;;;23.70;99.90;;;;;;5012405;28;20164;-55
2022/05/05 12:27:44;;;;;;;3.28;2.95;;;23.80;99.90;;;;;;5013268;28;20187;-55
2022/05/05 12:30:12;;;;;;;3.67;2.38;;;23.60;99.90;;;;;;5013021;28;20173;-53
2022/05/05 12:32:58;;;;;;;3.35;2.63;;;23.70;99.90;;;;;;5013144;28;20223;-53
2022/05/05 12:35:44;;;;;;;2.67;2.47;;;24.10;99.90;;;;;;4994559;28;20180;-56
2022/05/05 12:38:13;;;;;;;3.45;2.50;;;24.50;99.90;;;;;;5012965;28;20526;-55
2022/05/05 12:40:42;;;;;;;2.58;2.38;;;24.90;99.90;;;;;;5012905;28;20180;-55
2022/05/05 12:43:17;;;;;;;2.60;2.40;;;25.00;99.90;;;;;;5013075;28;20161;-55
2022/05/05 12:45:45;;;;;;;2.70;2.38;;;25.20;99.90;;;;;;5012427;28;20645;-52
2022/05/05 12:48:11;;;;;;;2.08;1.95;;;25.30;99.90;;;;;;5012731;28;20602;-53
2022/05/05 12:50:47;;;;;;;2.53;2.33;;;25.40;99.90;;;;;;5012871;28;20199;-53
2022/05/05 13:01:33;;;;;;;2.70;2.50;;;25.90;97.50;;;;;;5012619;28;20180;-54
2022/05/05 13:04:05;;;;;;;2.90;2.60;;;26.20;98.60;;;;;;5012175;28;20211;-51
2022/05/05 13:06:31;;;;;;;2.72;2.50;;;26.20;99.00;;;;;;5012394;28;20542;-55
2022/05/05 13:08:56;;;;;;;2.47;2.13;;;26.10;99.10;;;;;;5012563;28;20673;-52
2022/05/05 13:11:22;;;;;;;3.13;2.35;;;26.00;98.70;;;;;;5012369;28;20219;-53
2022/05/05 13:13:49;;;;;;;2.55;2.38;;;25.80;98.30;;;;;;5012191;28;20177;-55
2022/05/05 13:16:16;;;;;;;3.35;2.30;;;25.70;97.10;;;;;;5012157;28;20201;-53
2022/05/05 13:18:42;;;;;;;2.10;1.98;;;25.60;99.00;;;;;;5012252;28;20195;-56
2022/05/05 13:21:07;;;;;;;2.40;2.20;;;25.70;97.90;;;;;;5012292;28;20176;-52
2022/05/05 13:23:34;;;;;;;2.22;2.03;;;25.90;96.80;;;;;;5011630;28;20227;-59
2022/05/05 13:26:00;;;;;;;2.20;2.00;;;26.20;96.50;;;;;;5011930;28;20177;-55
2022/05/05 13:28:26;;;;;;;4.80;2.40;;;26.50;96.30;;;;;;5012216;28;20260;-53
2022/05/05 13:30:51;;;;;;;3.58;2.25;;;26.80;96.70;;;;;;5012101;28;20176;-56
2022/05/05 13:33:17;;;;;;;2.80;2.20;;;26.90;96.00;;;;;;5012105;28;20179;-54
2022/05/05 13:35:43;;;;;;;2.40;2.20;;;27.10;96.20;;;;;;5010950;28;20593;-54